Time;durP1;ratioP1;P1;durP2;ratioP2;P2;SDS_P1;SDS_P2;PMS_P1;PMS_P2;Temp;Humidity;BMP_temperature;BMP_pressure;BME280_temperature;BME280_humidity;BME280_pressure;Samples;Min_cycle;Max_cycle;Signal;HPM_P1;HPM_P2
2023/02/19 00:02:10;;;;;;;13.70;3.50;;;;;;;3.88;62.82;98205.23;107683;1251;61439;-37
2023/02/19 00:04:37;;;;;;;8.70;3.60;;;;;;;3.84;62.87;98211.87;107737;1251;75034;-37
2023/02/19 00:07:04;;;;;;;9.60;3.60;;;;;;;3.79;63.13;98212.89;107687;1251;69988;-38
2023/02/19 00:09:34;;;;;;;10.90;3.60;;;;;;;3.77;63.04;98214.52;107684;1251;73910;-37
2023/02/19 00:12:02;;;;;;;16.10;3.90;;;;;;;3.75;63.03;98209.25;107682;1251;62382;-37
2023/02/19 00:14:29;;;;;;;8.60;3.10;;;;;;;3.79;63.06;98207.30;107725;1251;61424;-37
2023/02/19 00:16:56;;;;;;;14.20;3.50;;;;;;;3.88;62.77;98212.05;107691;1251;74979;-37
2023/02/19 00:19:24;;;;;;;10.60;3.60;;;;;;;3.92;62.49;98213.08;107669;1254;69988;-37
2023/02/19 00:21:51;;;;;;;14.50;3.30;;;;;;;3.94;62.51;98211.60;107623;1251;73825;-38
2023/02/19 00:24:19;;;;;;;12.20;3.90;;;;;;;3.97;62.55;98214.35;107673;1251;60526;-37
2023/02/19 00:26:47;;;;;;;11.80;3.90;;;;;;;3.99;62.50;98216.02;107759;1251;59671;-37
2023/02/19 00:29:19;;;;;;;10.30;3.20;;;;;;;3.99;62.39;98212.17;107753;1251;73839;-38
2023/02/19 00:31:46;;;;;;;12.40;4.10;;;;;;;3.96;62.75;98211.88;107732;1251;67911;-37
2023/02/19 00:34:14;;;;;;;13.30;3.30;;;;;;;3.92;62.89;98209.34;107714;1251;73816;-37
2023/02/19 00:36:41;;;;;;;15.30;3.60;;;;;;;3.89;63.13;98207.33;107784;1251;60741;-37
2023/02/19 00:39:11;;;;;;;10.60;3.50;;;;;;;3.88;63.33;98211.52;107825;1251;60271;-38
2023/02/19 00:41:38;;;;;;;13.80;3.90;;;;;;;3.91;63.52;98214.73;107817;1253;75046;-37
2023/02/19 00:44:06;;;;;;;11.40;3.70;;;;;;;3.89;63.62;98218.61;107748;1249;68293;-37
2023/02/19 00:46:35;;;;;;;11.60;4.10;;;;;;;3.85;63.73;98210.15;107716;1253;72789;-37
2023/02/19 00:49:05;;;;;;;12.20;3.90;;;;;;;3.81;64.01;98216.95;107751;1249;60405;-37
2023/02/19 00:51:34;;;;;;;10.20;3.90;;;;;;;3.77;64.19;98219.43;107745;1254;61543;-37
2023/02/19 00:54:04;;;;;;;16.10;4.50;;;;;;;3.74;64.33;98216.48;107767;1251;74826;-36
2023/02/19 00:56:31;;;;;;;12.30;3.80;;;;;;;3.70;64.52;98216.54;107779;1254;69752;-37
2023/02/19 00:58:58;;;;;;;14.70;4.10;;;;;;;3.66;64.71;98217.68;107773;1251;73679;-37
2023/02/19 01:01:25;;;;;;;14.50;3.80;;;;;;;3.65;64.84;98220.23;107739;1254;61062;-36
2023/02/19 01:03:52;;;;;;;14.60;4.80;;;;;;;3.67;64.98;98222.29;107761;1251;61357;-37
2023/02/19 01:06:20;;;;;;;9.80;3.60;;;;;;;3.65;65.09;98233.58;107744;1251;74946;-37
2023/02/19 01:08:47;;;;;;;13.40;4.20;;;;;;;3.63;65.22;98234.34;107745;1251;68158;-37
2023/02/19 01:11:17;;;;;;;11.60;4.00;;;;;;;3.60;65.31;98234.73;107785;1251;71942;-37
2023/02/19 01:13:44;;;;;;;14.60;4.00;;;;;;;3.57;65.37;98237.73;107788;1253;60798;-37
2023/02/19 01:16:12;;;;;;;15.20;4.00;;;;;;;3.55;65.57;98238.72;106217;1251;1003192;-38
2023/02/19 01:18:41;;;;;;;12.40;3.80;;;;;;;3.56;65.63;98234.52;107731;1251;75033;-37
2023/02/19 01:21:11;;;;;;;13.10;3.90;;;;;;;3.58;65.72;98237.95;107761;1250;68556;-38
2023/02/19 01:23:43;;;;;;;16.70;4.10;;;;;;;3.60;65.76;98232.77;107731;1256;72775;-37
2023/02/19 01:26:18;;;;;;;13.60;4.00;;;;;;;3.62;65.82;98242.83;107751;1251;60505;-37
2023/02/19 01:28:45;;;;;;;13.90;4.60;;;;;;;3.65;65.69;98242.22;107779;1250;62106;-37
2023/02/19 01:31:15;;;;;;;12.10;4.20;;;;;;;3.65;65.86;98238.44;107744;1251;75115;-38
2023/02/19 01:33:46;;;;;;;14.70;4.50;;;;;;;3.64;65.95;98239.66;107805;1251;68435;-37
2023/02/19 01:36:13;;;;;;;15.40;5.20;;;;;;;3.60;66.14;98235.20;107797;1251;73753;-37
2023/02/19 01:38:41;;;;;;;11.80;3.80;;;;;;;3.63;66.26;98236.33;107731;1250;61027;-38
2023/02/19 01:41:09;;;;;;;15.10;4.50;;;;;;;3.66;66.35;98237.64;107729;1251;61527;-38
2023/02/19 01:44:10;;;;;;;15.70;4.40;;;;;;;3.65;66.40;98234.40;107765;1251;75031;-38
2023/02/19 01:46:38;;;;;;;13.20;4.00;;;;;;;3.62;66.62;98243.36;107781;1251;69928;-38
2023/02/19 01:49:23;;;;;;;10.20;4.10;;;;;;;3.59;66.76;98246.87;107745;1250;73939;-38
2023/02/19 01:52:03;;;;;;;14.40;4.00;;;;;;;3.59;66.85;98249.42;107810;1257;62185;-38
2023/02/19 01:54:32;;;;;;;14.80;4.20;;;;;;;3.62;66.88;98251.55;107794;1250;61370;-38
2023/02/19 01:56:59;;;;;;;15.10;4.20;;;;;;;3.67;66.87;98249.85;107801;1249;74954;-38
2023/02/19 01:59:26;;;;;;;15.10;4.60;;;;;;;3.68;66.99;98256.61;107734;1253;69898;-37
2023/02/19 02:01:55;;;;;;;10.50;4.30;;;;;;;3.67;66.98;98262.88;107715;1251;73689;-37
2023/02/19 02:04:22;;;;;;;18.10;4.60;;;;;;;3.66;67.09;98266.14;107788;1251;60387;-37
2023/02/19 02:06:54;;;;;;;15.40;4.50;;;;;;;3.65;67.32;98265.64;107699;1250;60336;-38
2023/02/19 02:12:15;;;;;;;15.30;4.60;;;;;;;3.71;67.40;98267.82;107775;1250;69731;-38
2023/02/19 02:14:44;;;;;;;15.40;4.30;;;;;;;3.69;67.48;98268.54;107742;1251;73865;-38
2023/02/19 02:17:27;;;;;;;16.80;5.10;;;;;;;3.69;67.58;98284.52;107716;1250;60899;-38
2023/02/19 02:20:14;;;;;;;16.60;4.80;;;;;;;3.69;67.58;98287.27;107680;1251;60112;-38
2023/02/19 02:22:44;;;;;;;11.90;4.20;;;;;;;3.66;67.77;98291.96;107780;1250;75039;-38
2023/02/19 02:25:24;;;;;;;14.60;4.20;;;;;;;3.67;67.80;98294.81;107698;1250;69611;-38
2023/02/19 02:28:29;;;;;;;14.90;4.20;;;;;;;3.73;67.85;98293.23;107724;1254;73752;-37
2023/02/19 02:31:05;;;;;;;15.10;4.80;;;;;;;3.74;67.84;98292.86;107676;1249;60767;-38
2023/02/19 02:33:38;;;;;;;19.10;5.30;;;;;;;3.71;67.84;98287.95;107720;1250;61550;-37
2023/02/19 02:36:20;;;;;;;13.00;4.80;;;;;;;3.68;68.07;98285.42;107663;1250;75089;-37
2023/02/19 02:38:48;;;;;;;14.80;4.80;;;;;;;3.63;68.38;98287.34;107743;1251;69646;-37
2023/02/19 02:41:15;;;;;;;9.40;3.90;;;;;;;3.60;68.47;98291.48;107688;1250;73753;-37
2023/02/19 02:43:42;;;;;;;14.50;4.50;;;;;;;3.60;68.62;98302.11;107751;1251;60746;-37
2023/02/19 02:46:17;;;;;;;13.40;4.50;;;;;;;3.58;68.90;98306.95;107685;1255;60563;-37
2023/02/19 02:48:52;;;;;;;13.60;4.30;;;;;;;3.54;69.12;98308.13;107708;1251;73580;-37
2023/02/19 02:51:22;;;;;;;10.90;4.50;;;;;;;3.49;69.25;98308.52;107744;1251;67838;-38
2023/02/19 02:56:52;;;;;;;13.10;4.40;;;;;;;3.46;69.86;98320.77;107739;1251;62241;-38
2023/02/19 02:59:22;;;;;;;12.80;4.30;;;;;;;3.46;69.79;98327.10;107605;1250;61284;-38
2023/02/19 03:02:17;;;;;;;9.10;4.20;;;;;;;3.42;70.01;98330.89;107789;1256;73244;-38
2023/02/19 03:08:09;;;;;;;11.90;3.90;;;;;;;3.22;70.32;98324.76;107683;1253;73596;-38
2023/02/19 03:10:50;;;;;;;13.70;5.60;;;;;;;3.11;70.93;98328.52;107576;1250;62213;-38
2023/02/19 03:19:18;;;;;;;11.30;4.10;;;;;;;2.94;71.50;98335.91;107700;1251;69789;-37
2023/02/19 03:21:58;;;;;;;7.60;3.50;;;;;;;2.85;71.95;98339.27;107721;1251;71858;-38
2023/02/19 03:27:15;;;;;;;11.60;3.80;;;;;;;2.71;72.55;98340.80;107726;1253;60424;-39
2023/02/19 03:29:45;;;;;;;11.70;4.20;;;;;;;2.71;72.67;98345.48;107730;1250;74600;-37
2023/02/19 03:32:38;;;;;;;10.50;4.00;;;;;;;2.71;72.78;98354.80;107560;1257;69951;-37
2023/02/19 03:35:10;;;;;;;9.90;3.90;;;;;;;2.66;73.16;98364.02;107680;1250;73601;-37
2023/02/19 03:37:42;;;;;;;7.50;3.60;;;;;;;2.58;73.40;98365.77;107055;1250;1002851;-37
2023/02/19 03:40:09;;;;;;;9.30;3.90;;;;;;;2.51;74.13;98358.92;107701;1250;61259;-37
2023/02/19 03:43:15;;;;;;;11.10;4.50;;;;;;;2.48;74.01;98361.43;107759;1251;74086;-37
2023/02/19 03:45:45;;;;;;;10.40;4.00;;;;;;;2.48;74.08;98359.38;107749;1251;68316;-37
2023/02/19 03:48:36;;;;;;;12.40;4.20;;;;;;;2.44;74.46;98353.41;107717;1250;73909;-36
2023/02/19 03:51:22;;;;;;;13.60;4.30;;;;;;;2.41;74.55;98358.45;107684;1252;60763;-37
2023/02/19 03:53:54;;;;;;;8.40;3.60;;;;;;;2.35;74.68;98359.39;107735;1253;61081;-36
2023/02/19 03:56:37;;;;;;;12.20;3.90;;;;;;;2.29;74.99;98365.48;107737;1250;75027;-37
2023/02/19 03:59:09;;;;;;;13.30;4.50;;;;;;;2.32;75.20;98359.32;107683;1250;68231;-37
2023/02/19 04:01:42;;;;;;;12.50;4.50;;;;;;;2.37;75.00;98358.43;107744;1250;71511;-37
2023/02/19 04:04:26;;;;;;;10.20;3.90;;;;;;;2.38;74.67;98353.45;107795;1251;60437;-37
2023/02/19 04:06:56;;;;;;;12.20;4.40;;;;;;;2.40;74.45;98360.45;107698;1251;61491;-37
2023/02/19 04:09:25;;;;;;;13.50;4.10;;;;;;;2.38;74.45;98363.83;107726;1251;74976;-36
2023/02/19 04:11:58;;;;;;;15.40;4.30;;;;;;;2.42;74.31;98367.28;107703;1250;69737;-36
2023/02/19 04:14:29;;;;;;;10.70;3.80;;;;;;;2.50;74.14;98368.75;107704;1251;73680;-37
2023/02/19 04:17:00;;;;;;;;;;;;;;;2.52;73.63;98371.20;107747;1250;59706;-37
2023/02/19 04:19:28;;;;;;;10.60;3.90;;;;;;;2.44;73.65;98373.75;107656;1250;61370;-37
2023/02/19 04:21:55;;;;;;;12.60;4.10;;;;;;;2.31;73.90;98374.00;107746;1251;73744;-37
2023/02/19 04:24:30;;;;;;;11.00;3.90;;;;;;;2.34;73.86;98385.83;107770;1250;68334;-37
2023/02/19 04:26:57;;;;;;;9.20;4.00;;;;;;;2.31;73.91;98393.70;107688;1250;72612;-37
2023/02/19 04:29:24;;;;;;;9.00;4.10;;;;;;;2.31;73.78;98400.88;107708;1250;60823;-36
2023/02/19 04:31:51;;;;;;;13.50;4.20;;;;;;;2.26;73.84;98401.33;107662;1250;61414;-37
2023/02/19 04:34:19;;;;;;;14.00;4.30;;;;;;;2.18;74.13;98402.91;107667;1253;74873;-37
2023/02/19 04:36:46;;;;;;;10.10;4.30;;;;;;;2.08;74.43;98410.30;107734;1251;69818;-37
2023/02/19 04:39:13;;;;;;;8.40;3.60;;;;;;;1.98;74.43;98408.46;107706;1250;73925;-38
2023/02/19 04:41:40;;;;;;;16.00;3.90;;;;;;;1.90;74.80;98407.20;107708;1250;61271;-37
2023/02/19 04:44:08;;;;;;;8.80;3.90;;;;;;;1.87;75.05;98400.12;107688;1250;60344;-37
2023/02/19 04:46:35;;;;;;;9.70;4.50;;;;;;;1.82;75.41;98403.96;107712;1250;75018;-37
2023/02/19 04:49:02;;;;;;;12.30;4.90;;;;;;;1.74;75.65;98415.22;107709;1251;68959;-37
2023/02/19 04:51:29;;;;;;;9.30;4.50;;;;;;;1.68;75.98;98417.98;107704;1251;72860;-37
2023/02/19 04:53:56;;;;;;;9.00;4.20;;;;;;;1.62;76.05;98422.75;107698;1250;61231;-37
2023/02/19 04:56:23;;;;;;;11.30;4.20;;;;;;;1.61;76.31;98426.46;107694;1250;61861;-37
2023/02/19 04:58:50;;;;;;;12.00;4.30;;;;;;;1.65;76.46;98423.17;107732;1250;73711;-37
2023/02/19 05:01:17;;;;;;;11.20;4.70;;;;;;;1.66;76.66;98430.77;107688;1250;69950;-39
2023/02/19 05:03:44;;;;;;;8.70;4.00;;;;;;;1.65;76.61;98429.80;107716;1250;73835;-37
2023/02/19 05:06:12;;;;;;;13.50;4.90;;;;;;;1.61;76.63;98430.66;107702;1250;60738;-37
2023/02/19 05:08:39;;;;;;;11.10;4.30;;;;;;;1.58;76.70;98424.13;107751;1249;61123;-37
2023/02/19 05:11:09;;;;;;;9.00;4.10;;;;;;;1.58;76.58;98427.41;107713;1250;75132;-37
2023/02/19 05:13:37;;;;;;;9.90;4.80;;;;;;;1.62;76.64;98432.96;107728;1249;68457;-37
2023/02/19 05:16:06;;;;;;;11.80;4.20;;;;;;;1.60;76.76;98430.77;107674;1250;72429;-37
2023/02/19 05:18:33;;;;;;;12.30;4.50;;;;;;;1.58;76.96;98434.81;107710;1250;60293;-37
2023/02/19 05:21:01;;;;;;;10.00;3.90;;;;;;;1.52;77.00;98432.29;107681;1250;61569;-37
2023/02/19 05:23:28;;;;;;;10.70;4.30;;;;;;;1.52;77.15;98437.01;107694;1251;75066;-37
2023/02/19 05:25:55;;;;;;;10.30;4.40;;;;;;;1.50;76.97;98440.70;107697;1251;70386;-37
2023/02/19 05:28:27;;;;;;;9.20;4.00;;;;;;;1.52;76.93;98440.85;107665;1249;72859;-37
2023/02/19 05:31:02;;;;;;;13.80;5.00;;;;;;;1.52;76.91;98448.85;107631;1253;60627;-37
2023/02/19 05:33:29;;;;;;;7.60;4.20;;;;;;;1.50;77.22;98450.51;107715;1250;61589;-38
2023/02/19 05:35:56;;;;;;;10.70;4.30;;;;;;;1.45;77.20;98454.21;107711;1250;74960;-37
2023/02/19 05:38:24;;;;;;;8.40;3.80;;;;;;;1.38;77.38;98456.90;107626;1251;69928;-37
2023/02/19 05:40:50;;;;;;;11.10;4.40;;;;;;;1.36;77.73;98459.88;107705;1250;73635;-37
2023/02/19 05:43:37;;;;;;;13.00;4.90;;;;;;;1.38;77.64;98465.50;107659;1250;60809;-37
2023/02/19 05:46:05;;;;;;;12.80;5.30;;;;;;;1.39;78.36;98465.79;107742;1253;60302;-37
2023/02/19 05:48:32;;;;;;;14.10;4.60;;;;;;;1.38;78.82;98469.78;107689;1250;74840;-37
2023/02/19 05:51:02;;;;;;;14.00;5.50;;;;;;;1.36;79.24;98473.09;107720;1251;67542;-38
2023/02/19 05:53:29;;;;;;;12.40;4.80;;;;;;;1.39;79.60;98477.69;107676;1250;71340;-37
2023/02/19 05:55:56;;;;;;;8.40;4.50;;;;;;;1.44;79.75;98484.55;107662;1250;60635;-38
2023/02/19 05:58:23;;;;;;;9.90;4.90;;;;;;;1.49;80.01;98484.59;107720;1251;61506;-37
2023/02/19 06:00:50;;;;;;;11.50;4.60;;;;;;;1.53;80.17;98483.08;107759;1251;72751;-37
2023/02/19 06:03:17;;;;;;;11.10;4.30;;;;;;;1.57;80.52;98482.71;107672;1250;69822;-37
2023/02/19 06:05:44;;;;;;;9.20;4.10;;;;;;;1.63;80.52;98475.14;107680;1250;74016;-37
2023/02/19 06:08:14;;;;;;;11.30;4.90;;;;;;;1.71;80.33;98472.80;107648;1250;60409;-37
2023/02/19 06:10:40;;;;;;;12.40;5.10;;;;;;;1.77;80.39;98473.58;107723;1250;61269;-37
2023/02/19 06:13:08;;;;;;;11.10;4.90;;;;;;;1.81;80.38;98474.89;107724;1250;74991;-38
2023/02/19 06:15:36;;;;;;;11.40;4.70;;;;;;;1.84;80.40;98478.27;107684;1250;69570;-37
2023/02/19 06:18:03;;;;;;;9.00;4.40;;;;;;;1.91;80.55;98477.38;107617;1251;73732;-37
2023/02/19 06:20:31;;;;;;;11.30;4.30;;;;;;;1.99;80.71;98481.16;107728;1250;59812;-38
2023/02/19 06:22:58;;;;;;;9.60;4.70;;;;;;;2.06;80.53;98472.48;107726;1250;60279;-37
2023/02/19 06:25:25;;;;;;;11.20;4.90;;;;;;;2.11;80.31;98474.05;107729;1251;74930;-38
2023/02/19 06:27:53;;;;;;;8.60;4.30;;;;;;;2.11;79.91;98475.86;107720;1251;69841;-37
2023/02/19 06:30:21;;;;;;;11.40;4.40;;;;;;;2.12;79.68;98479.28;107736;1250;74027;-38
2023/02/19 06:32:51;;;;;;;8.40;4.30;;;;;;;2.16;79.40;98476.95;107685;1250;60660;-38
2023/02/19 06:35:19;;;;;;;8.70;4.40;;;;;;;2.16;79.33;98480.49;107721;1250;61489;-38
2023/02/19 06:37:47;;;;;;;9.30;4.70;;;;;;;2.13;79.38;98486.64;106231;1250;1015882;-37
2023/02/19 06:40:15;;;;;;;10.90;4.60;;;;;;;2.12;79.26;98489.29;107681;1249;68257;-38
2023/02/19 06:42:41;;;;;;;11.00;4.10;;;;;;;2.18;79.15;98492.55;107675;1251;73953;-38
2023/02/19 06:45:09;;;;;;;12.50;4.40;;;;;;;2.25;78.94;98488.98;107680;1254;60760;-38
2023/02/19 06:47:37;;;;;;;13.00;4.10;;;;;;;2.26;78.90;98484.91;107702;1250;60305;-38
2023/02/19 06:50:04;;;;;;;12.70;4.10;;;;;;;2.26;78.68;98480.92;107674;1249;75459;-37
2023/02/19 06:52:32;;;;;;;8.60;4.00;;;;;;;2.24;78.45;98468.27;107704;1250;69837;-38
2023/02/19 06:54:59;;;;;;;9.50;3.80;;;;;;;2.33;78.25;98473.22;107663;1251;74083;-38
2023/02/19 06:57:27;;;;;;;10.80;4.20;;;;;;;2.36;78.14;98476.34;107687;1251;60698;-38
2023/02/19 06:59:55;;;;;;;10.40;4.30;;;;;;;2.36;77.83;98481.91;107739;1250;62045;-37
2023/02/19 07:02:22;;;;;;;9.90;4.40;;;;;;;2.37;78.01;98483.02;107738;1250;74961;-37
2023/02/19 07:04:49;;;;;;;10.60;4.10;;;;;;;2.41;77.60;98487.59;107670;1251;69726;-37
2023/02/19 07:07:16;;;;;;;13.50;4.40;;;;;;;2.46;77.46;98488.92;107685;1250;71888;-37
2023/02/19 07:09:43;;;;;;;11.20;4.30;;;;;;;2.46;77.20;98494.05;107738;1250;60410;-36
2023/02/19 07:12:10;;;;;;;9.90;4.10;;;;;;;2.46;77.19;98495.21;107673;1250;61547;-37
2023/02/19 07:14:38;;;;;;;8.70;4.10;;;;;;;2.53;77.18;98497.14;107725;1252;72746;-37
2023/02/19 07:17:05;;;;;;;8.30;3.90;;;;;;;2.67;76.91;98498.33;107759;1250;68984;-37
2023/02/19 07:19:32;;;;;;;10.10;4.00;;;;;;;2.77;75.72;98500.14;107681;1250;73644;-37
2023/02/19 07:21:59;;;;;;;11.00;3.80;;;;;;;2.82;75.52;98498.46;107711;1250;60787;-37
2023/02/19 07:24:26;;;;;;;11.20;3.80;;;;;;;2.77;75.39;98489.81;107721;1251;61540;-37
2023/02/19 07:26:53;;;;;;;11.40;3.90;;;;;;;2.84;74.75;98502.45;106918;1250;1003049;-37
2023/02/19 07:29:20;;;;;;;8.10;3.30;;;;;;;2.93;75.07;98501.23;107695;1250;60424;-37
2023/02/19 07:31:48;;;;;;;10.60;3.90;;;;;;;2.97;74.17;98500.61;107653;1252;73854;-37
2023/02/19 07:34:15;;;;;;;11.70;3.80;;;;;;;2.97;73.54;98504.58;107692;1250;60633;-37
2023/02/19 07:36:42;;;;;;;12.30;3.80;;;;;;;2.94;74.05;98509.54;107533;1250;217401;-37
2023/02/19 07:41:05;;;;;;;8.60;3.40;;;;;;;3.04;73.62;98515.16;104257;1291;600739;-37
2023/02/19 07:43:35;;;;;;;8.50;3.70;;;;;;;3.04;72.49;98509.49;106718;1265;59209;-36
2023/02/19 07:46:07;;;;;;;9.00;3.70;;;;;;;3.02;72.08;98506.29;106800;1265;61538;-37
2023/02/19 07:48:37;;;;;;;8.60;3.60;;;;;;;2.99;72.33;98513.64;106002;1266;1003082;-37
2023/02/19 07:51:06;;;;;;;8.90;3.60;;;;;;;3.05;72.32;98515.97;106853;1269;70002;-37
2023/02/19 07:53:35;;;;;;;9.10;3.70;;;;;;;3.17;71.59;98516.20;106686;1266;167984;-38
2023/02/19 07:56:05;;;;;;;8.90;3.60;;;;;;;3.23;71.53;98512.73;106898;1264;60884;-38
2023/02/19 07:58:33;;;;;;;;;;;;;;;3.25;70.86;98515.71;106877;1262;61810;-37
2023/02/19 08:01:06;;;;;;;10.30;3.60;;;;;;;3.19;70.94;98523.86;106808;1262;73536;-38
2023/02/19 08:03:36;;;;;;;12.00;3.70;;;;;;;3.14;70.74;98526.21;106843;1264;70389;-37
2023/02/19 08:06:05;;;;;;;12.00;4.00;;;;;;;3.20;70.92;98528.27;106144;1264;1003033;-38
2023/02/19 08:08:34;;;;;;;12.40;4.10;;;;;;;3.22;70.67;98531.14;106822;1262;60803;-38
2023/02/19 08:13:53;;;;;;;10.70;3.50;;;;;;;3.13;71.03;98535.81;106879;1263;74144;-37
2023/02/19 08:16:22;;;;;;;12.20;3.50;;;;;;;3.09;70.61;98545.02;107445;1256;69871;-37
2023/02/19 08:19:09;;;;;;;9.80;3.60;;;;;;;3.13;70.67;98553.48;107283;1256;73857;-37
2023/02/19 08:21:38;;;;;;;10.90;3.90;;;;;;;3.12;70.75;98547.00;107251;1256;60798;-38
2023/02/19 08:24:06;;;;;;;10.10;4.00;;;;;;;3.10;70.86;98551.33;107316;1256;61521;-37
2023/02/19 08:26:37;;;;;;;9.80;3.40;;;;;;;3.11;71.09;98546.98;107239;1256;74181;-37
2023/02/19 08:29:05;;;;;;;7.30;3.40;;;;;;;3.15;70.49;98542.31;107300;1256;69939;-37
2023/02/19 08:31:35;;;;;;;11.80;3.20;;;;;;;3.20;69.53;98541.27;107323;1256;73951;-37
2023/02/19 08:34:04;;;;;;;12.30;3.60;;;;;;;3.22;69.68;98539.97;107313;1256;59680;-37
2023/02/19 08:36:32;;;;;;;9.90;3.60;;;;;;;3.26;69.72;98532.60;107291;1256;61272;-37
2023/02/19 08:39:01;;;;;;;10.60;3.70;;;;;;;3.31;69.42;98532.55;107318;1256;74232;-37
2023/02/19 08:41:30;;;;;;;9.40;3.10;;;;;;;3.37;68.60;98527.92;107266;1256;69865;-37
2023/02/19 08:43:59;;;;;;;12.20;3.50;;;;;;;3.44;68.22;98529.20;107299;1257;73688;-37
2023/02/19 08:46:28;;;;;;;10.90;3.70;;;;;;;3.43;67.63;98532.88;107270;1256;60495;-37
2023/02/19 08:48:57;;;;;;;13.50;4.00;;;;;;;3.36;67.60;98523.43;107354;1256;61465;-37
2023/02/19 08:51:26;;;;;;;10.80;3.70;;;;;;;3.29;67.90;98528.04;107331;1256;73956;-37
2023/02/19 08:53:54;;;;;;;6.60;2.90;;;;;;;3.25;68.01;98527.55;107303;1256;69488;-38
2023/02/19 08:56:23;;;;;;;9.50;3.30;;;;;;;3.28;67.97;98519.96;106530;1256;1003764;-38
2023/02/19 08:58:54;;;;;;;9.40;3.70;;;;;;;3.32;67.99;98517.18;107326;1256;60803;-38
2023/02/19 09:01:22;;;;;;;13.50;3.30;;;;;;;3.33;67.95;98515.85;107275;1256;61554;-38
2023/02/19 09:03:52;;;;;;;8.80;3.30;;;;;;;3.31;67.57;98513.79;107297;1256;74487;-38
2023/02/19 09:06:20;;;;;;;8.80;3.30;;;;;;;3.27;67.39;98519.41;107309;1256;68112;-38
2023/02/19 09:08:50;;;;;;;8.80;3.50;;;;;;;3.29;67.06;98514.63;107327;1256;72618;-38
2023/02/19 09:11:18;;;;;;;10.10;3.00;;;;;;;3.31;67.13;98511.02;107256;1256;60806;-38
2023/02/19 09:13:47;;;;;;;10.80;3.20;;;;;;;3.30;67.04;98506.77;107228;1257;61682;-37
2023/02/19 09:16:15;;;;;;;13.20;3.70;;;;;;;3.30;67.16;98510.67;107255;1255;74389;-38
2023/02/19 09:18:44;;;;;;;15.00;3.90;;;;;;;3.32;67.66;98512.05;107262;1256;69922;-37
2023/02/19 09:21:14;;;;;;;8.40;3.40;;;;;;;3.35;66.71;98508.73;107264;1256;73584;-37
2023/02/19 09:23:43;;;;;;;9.70;3.80;;;;;;;3.42;66.38;98509.34;107255;1256;60438;-37
2023/02/19 09:26:12;;;;;;;7.90;3.40;;;;;;;3.46;65.91;98507.64;107252;1257;61460;-37
2023/02/19 09:28:43;;;;;;;12.10;3.50;;;;;;;3.49;65.72;98513.23;107275;1257;72581;-37
2023/02/19 09:31:14;;;;;;;10.90;3.80;;;;;;;3.53;65.48;98515.89;107323;1260;69889;-37
2023/02/19 09:33:44;;;;;;;12.70;4.00;;;;;;;3.56;65.77;98517.53;107277;1256;73682;-37
2023/02/19 09:36:13;;;;;;;6.60;2.60;;;;;;;3.57;65.77;98524.96;107298;1256;61149;-37
2023/02/19 09:38:41;;;;;;;14.20;3.70;;;;;;;3.62;65.83;98514.34;107286;1256;61545;-38
2023/02/19 09:41:16;;;;;;;10.80;3.30;;;;;;;3.66;65.49;98502.38;107268;1256;72803;-37
2023/02/19 09:43:46;;;;;;;7.10;3.10;;;;;;;3.65;65.44;98501.72;107285;1260;69946;-38
2023/02/19 09:46:23;;;;;;;12.80;3.80;;;;;;;3.65;65.63;98491.01;107259;1256;72150;-37
2023/02/19 09:48:56;;;;;;;9.40;3.70;;;;;;;3.71;65.66;98490.42;107279;1256;59598;-37
2023/02/19 09:51:24;;;;;;;11.90;3.20;;;;;;;3.76;65.30;98487.61;107241;1256;60441;-37
2023/02/19 09:53:53;;;;;;;9.90;3.20;;;;;;;3.86;65.03;98484.79;107237;1256;74344;-37
2023/02/19 09:56:21;;;;;;;10.20;3.80;;;;;;;3.95;65.24;98486.36;107286;1256;70218;-38
2023/02/19 09:58:52;;;;;;;9.10;3.60;;;;;;;3.99;65.27;98478.43;107198;1256;73708;-37
2023/02/19 10:01:20;;;;;;;12.80;3.30;;;;;;;4.03;65.40;98474.27;107266;1256;59669;-37
2023/02/19 10:03:49;;;;;;;10.80;3.30;;;;;;;4.03;64.72;98470.36;107278;1256;61353;-37
2023/02/19 10:06:19;;;;;;;8.60;3.40;;;;;;;4.01;64.69;98466.17;107293;1260;74292;-37
2023/02/19 10:08:50;;;;;;;11.80;3.80;;;;;;;3.99;64.50;98463.92;107352;1256;67568;-37
2023/02/19 10:11:18;;;;;;;12.60;3.80;;;;;;;4.04;64.53;98459.80;107293;1260;73103;-37
2023/02/19 10:13:49;;;;;;;11.70;3.50;;;;;;;4.06;64.14;98459.18;107295;1256;60524;-37
2023/02/19 10:16:20;;;;;;;10.00;3.20;;;;;;;4.09;64.35;98453.06;107285;1256;60559;-37
2023/02/19 10:18:49;;;;;;;8.20;3.60;;;;;;;4.13;63.80;98453.56;107336;1256;74276;-37
2023/02/19 10:21:20;;;;;;;10.60;3.40;;;;;;;4.17;63.71;98452.46;107357;1260;69956;-37
2023/02/19 10:23:54;;;;;;;10.90;3.40;;;;;;;4.21;63.00;98439.48;107351;1256;73814;-37
2023/02/19 10:26:22;;;;;;;12.40;3.70;;;;;;;4.26;62.85;98429.81;107358;1256;60702;-37
2023/02/19 10:28:53;;;;;;;9.10;4.10;;;;;;;4.32;62.20;98430.45;107352;1260;61217;-38
2023/02/19 10:31:23;;;;;;;11.70;3.90;;;;;;;4.35;61.85;98426.15;107292;1257;74265;-37
2023/02/19 10:33:55;;;;;;;10.60;3.00;;;;;;;4.37;61.92;98423.23;107299;1256;69144;-38
2023/02/19 10:36:28;;;;;;;8.20;3.20;;;;;;;4.42;61.79;98414.23;107234;1256;73890;-38
2023/02/19 10:39:00;;;;;;;9.80;3.80;;;;;;;4.49;62.08;98411.90;107279;1256;62382;-38
2023/02/19 10:41:29;;;;;;;10.80;3.60;;;;;;;4.56;62.03;98402.73;107375;1256;61536;-38
2023/02/19 10:44:14;;;;;;;12.40;4.30;;;;;;;4.58;61.58;98395.96;107218;1262;74223;-37
2023/02/19 10:46:45;;;;;;;14.40;4.40;;;;;;;4.56;60.56;98386.16;107346;1255;69916;-38
2023/02/19 10:49:23;;;;;;;9.30;3.50;;;;;;;4.51;60.99;98381.52;107317;1256;73863;-38
2023/02/19 10:51:52;;;;;;;11.30;3.20;;;;;;;4.49;59.79;98375.77;107326;1256;59865;-38
2023/02/19 10:54:34;;;;;;;10.70;3.80;;;;;;;4.46;59.58;98378.23;107358;1259;61510;-38
2023/02/19 10:57:18;;;;;;;9.80;3.20;;;;;;;4.47;58.74;98374.19;107321;1259;73009;-38
2023/02/19 10:59:51;;;;;;;9.60;3.30;;;;;;;4.47;58.72;98369.52;107317;1256;69836;-38
2023/02/19 11:02:20;;;;;;;7.50;3.00;;;;;;;4.51;58.52;98360.27;107310;1256;72716;-37
2023/02/19 11:05:17;;;;;;;9.40;3.60;;;;;;;4.56;57.57;98355.02;107351;1258;59518;-37
2023/02/19 11:07:47;;;;;;;9.20;3.00;;;;;;;4.59;56.75;98354.34;107373;1256;61285;-37
2023/02/19 11:10:23;;;;;;;10.20;3.40;;;;;;;4.56;56.52;98348.89;107334;1256;74398;-37
2023/02/19 11:12:52;;;;;;;11.80;2.90;;;;;;;4.56;56.97;98350.81;107378;1256;69957;-38
2023/02/19 11:15:27;;;;;;;6.70;3.00;;;;;;;4.57;56.50;98347.78;107428;1259;73799;-37
2023/02/19 11:18:18;;;;;;;7.20;3.00;;;;;;;4.61;56.16;98341.88;107328;1256;60783;-37
2023/02/19 11:21:00;;;;;;;8.60;3.00;;;;;;;4.65;55.96;98331.72;107327;1255;60531;-37
2023/02/19 11:23:30;;;;;;;10.10;2.90;;;;;;;4.66;54.26;98332.27;107318;1256;74149;-38
2023/02/19 11:26:01;;;;;;;7.60;3.10;;;;;;;4.64;53.67;98336.92;107340;1256;66855;-37
2023/02/19 11:28:34;;;;;;;12.00;3.60;;;;;;;4.62;53.35;98329.80;107358;1256;74076;-37
2023/02/19 11:31:16;;;;;;;9.20;2.90;;;;;;;4.58;53.42;98334.23;107356;1256;60618;-37
2023/02/19 11:33:58;;;;;;;7.90;2.80;;;;;;;4.54;53.48;98333.29;107342;1257;61563;-37
2023/02/19 11:36:30;;;;;;;9.00;2.80;;;;;;;4.51;53.37;98336.41;107375;1256;74166;-37
2023/02/19 11:39:14;;;;;;;8.90;2.80;;;;;;;4.46;53.02;98336.38;107341;1256;68850;-37
2023/02/19 11:42:11;;;;;;;7.60;2.70;;;;;;;4.44;52.77;98339.55;107361;1255;73969;-37
2023/02/19 11:44:54;;;;;;;6.10;2.50;;;;;;;4.44;52.76;98343.97;107365;1256;60817;-37
2023/02/19 11:47:45;;;;;;;7.40;2.30;;;;;;;4.47;53.01;98345.67;107459;1254;61600;-37
2023/02/19 11:50:28;;;;;;;;;;;;;;;4.54;53.02;98343.48;107565;1256;74072;-38
2023/02/19 11:53:21;;;;;;;6.20;2.50;;;;;;;4.53;52.42;98340.91;107547;1259;69915;-37
2023/02/19 11:56:10;;;;;;;8.70;2.80;;;;;;;4.52;52.42;98334.77;107539;1254;72878;-38
2023/02/19 11:58:47;;;;;;;;;;;;;;;4.55;52.85;98335.36;107572;1254;60477;-37
2023/02/19 12:01:23;;;;;;;7.90;2.70;;;;;;;4.50;53.19;98336.68;107577;1254;61306;-37
2023/02/19 12:04:13;;;;;;;7.10;2.40;;;;;;;4.49;53.71;98333.67;107551;1255;74460;-38
2023/02/19 12:06:51;;;;;;;7.30;2.60;;;;;;;4.52;53.62;98334.60;105296;1254;1003729;-37
2023/02/19 12:09:42;;;;;;;8.50;2.80;;;;;;;4.54;54.07;98339.55;107548;1255;73922;-37
2023/02/19 12:12:25;;;;;;;11.20;3.50;;;;;;;4.57;53.65;98337.95;107533;1260;60759;-37